Terminal Aerodrome Forecast
Issued by NWS Blacksburg, VA

Home | Current Version | Previous Version | Text Only | Print | Product List | Glossary On
Versions: 1 2 3 4 5 6 7 8 9 10 11 12 13 14
000
FTUS41 KRNK 222335
TAFDAN
TAF
KDAN 222335Z 2300/2324 16005KT P6SM BKN150
      TEMPO 2300/2304 -SHRA OVC080
     FM230400 18007KT P6SM OVC020
     FM230600 18009KT P6SM VCSH OVC010
     FM231000 19011KT P6SM OVC015
     FM231500 23013KT P6SM SCT040
     FM232200 28012KT P6SM SKC=

USA.gov is the U.S. government's official web portal to all federal, state and local government web resources and services.